sensor_id;sensor_type;location;lat;lon;timestamp;P1;durP1;ratioP1;P2;durP2;ratioP2
33864;SDS011;20159;51.072;13.526;2023-06-22T00:01:15;9.85;;;8.32;;
33864;SDS011;20159;51.072;13.526;2023-06-22T00:03:41;10.32;;;8.27;;
33864;SDS011;20159;51.072;13.526;2023-06-22T00:06:06;9.55;;;8.48;;
33864;SDS011;20159;51.072;13.526;2023-06-22T00:08:32;8.10;;;7.35;;
33864;SDS011;20159;51.072;13.526;2023-06-22T00:10:58;9.75;;;8.75;;
33864;SDS011;20159;51.072;13.526;2023-06-22T00:13:23;8.57;;;7.78;;
33864;SDS011;20159;51.072;13.526;2023-06-22T00:15:49;10.38;;;8.55;;
33864;SDS011;20159;51.072;13.526;2023-06-22T00:18:14;9.45;;;8.25;;
33864;SDS011;20159;51.072;13.526;2023-06-22T00:20:41;9.23;;;8.38;;
33864;SDS011;20159;51.072;13.526;2023-06-22T00:23:06;9.48;;;8.57;;
33864;SDS011;20159;51.072;13.526;2023-06-22T00:25:35;9.75;;;8.45;;
33864;SDS011;20159;51.072;13.526;2023-06-22T00:28:07;8.90;;;8.10;;
33864;SDS011;20159;51.072;13.526;2023-06-22T00:30:33;9.07;;;7.97;;
33864;SDS011;20159;51.072;13.526;2023-06-22T00:32:59;9.77;;;8.80;;
33864;SDS011;20159;51.072;13.526;2023-06-22T00:35:25;8.93;;;8.02;;
33864;SDS011;20159;51.072;13.526;2023-06-22T00:37:58;9.82;;;8.93;;
33864;SDS011;20159;51.072;13.526;2023-06-22T00:40:28;9.50;;;8.60;;
33864;SDS011;20159;51.072;13.526;2023-06-22T00:42:57;9.85;;;8.77;;
33864;SDS011;20159;51.072;13.526;2023-06-22T00:45:24;10.43;;;9.38;;
33864;SDS011;20159;51.072;13.526;2023-06-22T00:47:53;9.60;;;8.60;;
33864;SDS011;20159;51.072;13.526;2023-06-22T00:50:26;9.73;;;8.77;;
33864;SDS011;20159;51.072;13.526;2023-06-22T00:52:54;9.40;;;8.40;;
33864;SDS011;20159;51.072;13.526;2023-06-22T00:55:21;9.77;;;8.77;;
33864;SDS011;20159;51.072;13.526;2023-06-22T00:57:48;9.73;;;8.85;;
33864;SDS011;20159;51.072;13.526;2023-06-22T01:00:16;9.13;;;8.23;;
33864;SDS011;20159;51.072;13.526;2023-06-22T01:02:44;8.75;;;7.85;;
33864;SDS011;20159;51.072;13.526;2023-06-22T01:05:14;9.25;;;8.35;;
33864;SDS011;20159;51.072;13.526;2023-06-22T01:10:34;9.45;;;7.93;;
33864;SDS011;20159;51.072;13.526;2023-06-22T01:13:27;9.45;;;8.55;;
33864;SDS011;20159;51.072;13.526;2023-06-22T01:16:11;9.32;;;8.43;;
33864;SDS011;20159;51.072;13.526;2023-06-22T01:18:52;9.95;;;8.30;;
33864;SDS011;20159;51.072;13.526;2023-06-22T01:21:21;9.10;;;8.30;;
33864;SDS011;20159;51.072;13.526;2023-06-22T01:29:21;9.35;;;8.43;;
33864;SDS011;20159;51.072;13.526;2023-06-22T01:31:49;10.40;;;9.40;;
33864;SDS011;20159;51.072;13.526;2023-06-22T01:34:16;9.10;;;8.27;;
33864;SDS011;20159;51.072;13.526;2023-06-22T01:36:42;10.30;;;8.70;;
33864;SDS011;20159;51.072;13.526;2023-06-22T01:39:08;8.82;;;8.00;;
33864;SDS011;20159;51.072;13.526;2023-06-22T01:41:36;9.88;;;8.82;;
33864;SDS011;20159;51.072;13.526;2023-06-22T01:44:04;10.00;;;9.02;;
33864;SDS011;20159;51.072;13.526;2023-06-22T01:46:36;10.50;;;9.05;;
33864;SDS011;20159;51.072;13.526;2023-06-22T01:49:04;10.32;;;8.93;;
33864;SDS011;20159;51.072;13.526;2023-06-22T01:51:31;9.48;;;8.57;;
33864;SDS011;20159;51.072;13.526;2023-06-22T01:53:56;10.30;;;8.55;;
33864;SDS011;20159;51.072;13.526;2023-06-22T01:56:22;13.18;;;9.30;;
33864;SDS011;20159;51.072;13.526;2023-06-22T01:58:50;11.07;;;9.32;;
33864;SDS011;20159;51.072;13.526;2023-06-22T02:01:23;10.00;;;9.00;;
33864;SDS011;20159;51.072;13.526;2023-06-22T02:04:03;12.70;;;9.88;;
33864;SDS011;20159;51.072;13.526;2023-06-22T02:06:35;10.32;;;9.25;;
33864;SDS011;20159;51.072;13.526;2023-06-22T02:09:11;10.05;;;9.05;;
33864;SDS011;20159;51.072;13.526;2023-06-22T02:11:40;10.40;;;9.27;;
33864;SDS011;20159;51.072;13.526;2023-06-22T02:14:07;10.88;;;9.25;;
33864;SDS011;20159;51.072;13.526;2023-06-22T02:16:33;11.05;;;9.43;;
33864;SDS011;20159;51.072;13.526;2023-06-22T02:19:00;10.40;;;8.85;;
33864;SDS011;20159;51.072;13.526;2023-06-22T02:21:31;10.32;;;9.20;;
33864;SDS011;20159;51.072;13.526;2023-06-22T02:23:57;9.98;;;8.98;;
33864;SDS011;20159;51.072;13.526;2023-06-22T02:26:23;11.05;;;9.70;;
33864;SDS011;20159;51.072;13.526;2023-06-22T02:28:50;10.07;;;9.07;;
33864;SDS011;20159;51.072;13.526;2023-06-22T02:31:16;10.05;;;9.05;;
33864;SDS011;20159;51.072;13.526;2023-06-22T02:33:42;10.30;;;9.20;;
33864;SDS011;20159;51.072;13.526;2023-06-22T02:36:08;10.80;;;9.80;;
33864;SDS011;20159;51.072;13.526;2023-06-22T02:38:34;10.63;;;9.25;;
33864;SDS011;20159;51.072;13.526;2023-06-22T02:41:01;10.75;;;9.25;;
33864;SDS011;20159;51.072;13.526;2023-06-22T02:43:27;9.80;;;8.82;;
33864;SDS011;20159;51.072;13.526;2023-06-22T02:45:53;10.30;;;9.18;;
33864;SDS011;20159;51.072;13.526;2023-06-22T02:48:18;9.77;;;8.35;;
33864;SDS011;20159;51.072;13.526;2023-06-22T02:50:44;10.40;;;9.30;;
33864;SDS011;20159;51.072;13.526;2023-06-22T02:53:09;11.63;;;10.27;;
33864;SDS011;20159;51.072;13.526;2023-06-22T02:55:35;11.18;;;9.70;;
33864;SDS011;20159;51.072;13.526;2023-06-22T02:58:01;10.60;;;9.48;;
33864;SDS011;20159;51.072;13.526;2023-06-22T03:00:29;10.65;;;9.15;;
33864;SDS011;20159;51.072;13.526;2023-06-22T03:02:58;9.63;;;8.63;;
33864;SDS011;20159;51.072;13.526;2023-06-22T03:05:24;12.50;;;9.07;;
33864;SDS011;20159;51.072;13.526;2023-06-22T03:07:49;10.02;;;9.02;;
33864;SDS011;20159;51.072;13.526;2023-06-22T03:10:16;10.15;;;9.15;;
33864;SDS011;20159;51.072;13.526;2023-06-22T03:12:42;12.65;;;10.02;;
33864;SDS011;20159;51.072;13.526;2023-06-22T03:15:08;9.65;;;8.65;;
33864;SDS011;20159;51.072;13.526;2023-06-22T03:17:35;12.02;;;9.77;;
33864;SDS011;20159;51.072;13.526;2023-06-22T03:20:03;10.85;;;9.52;;
33864;SDS011;20159;51.072;13.526;2023-06-22T03:22:39;10.77;;;9.10;;
33864;SDS011;20159;51.072;13.526;2023-06-22T03:25:05;10.55;;;8.80;;
33864;SDS011;20159;51.072;13.526;2023-06-22T03:27:41;10.23;;;9.23;;
33864;SDS011;20159;51.072;13.526;2023-06-22T03:30:09;10.27;;;8.80;;
33864;SDS011;20159;51.072;13.526;2023-06-22T03:32:36;11.15;;;8.38;;
33864;SDS011;20159;51.072;13.526;2023-06-22T03:35:01;10.52;;;9.43;;
33864;SDS011;20159;51.072;13.526;2023-06-22T03:37:31;10.48;;;9.48;;
33864;SDS011;20159;51.072;13.526;2023-06-22T03:39:56;9.88;;;8.90;;
33864;SDS011;20159;51.072;13.526;2023-06-22T03:42:22;10.05;;;8.93;;
33864;SDS011;20159;51.072;13.526;2023-06-22T03:44:47;10.43;;;9.02;;
33864;SDS011;20159;51.072;13.526;2023-06-22T03:47:13;9.82;;;8.93;;
33864;SDS011;20159;51.072;13.526;2023-06-22T03:49:39;9.85;;;8.82;;
33864;SDS011;20159;51.072;13.526;2023-06-22T03:52:04;10.13;;;8.68;;
33864;SDS011;20159;51.072;13.526;2023-06-22T03:54:30;13.23;;;9.73;;
33864;SDS011;20159;51.072;13.526;2023-06-22T03:56:56;10.13;;;9.15;;
33864;SDS011;20159;51.072;13.526;2023-06-22T03:59:23;13.30;;;8.60;;
33864;SDS011;20159;51.072;13.526;2023-06-22T04:01:49;10.27;;;9.35;;
33864;SDS011;20159;51.072;13.526;2023-06-22T04:04:15;10.93;;;9.82;;
33864;SDS011;20159;51.072;13.526;2023-06-22T04:06:41;11.25;;;9.18;;
33864;SDS011;20159;51.072;13.526;2023-06-22T04:09:06;10.07;;;8.98;;
33864;SDS011;20159;51.072;13.526;2023-06-22T04:11:32;11.38;;;9.05;;
33864;SDS011;20159;51.072;13.526;2023-06-22T04:13:57;18.95;;;9.35;;
33864;SDS011;20159;51.072;13.526;2023-06-22T04:16:23;9.70;;;8.80;;
33864;SDS011;20159;51.072;13.526;2023-06-22T04:18:48;12.15;;;9.45;;
33864;SDS011;20159;51.072;13.526;2023-06-22T04:21:14;9.98;;;8.88;;
33864;SDS011;20159;51.072;13.526;2023-06-22T04:23:39;11.02;;;9.25;;
33864;SDS011;20159;51.072;13.526;2023-06-22T04:26:05;10.10;;;9.00;;
33864;SDS011;20159;51.072;13.526;2023-06-22T04:28:30;10.68;;;9.57;;
33864;SDS011;20159;51.072;13.526;2023-06-22T04:31:00;10.73;;;8.98;;
33864;SDS011;20159;51.072;13.526;2023-06-22T04:33:27;9.68;;;8.68;;
33864;SDS011;20159;51.072;13.526;2023-06-22T04:35:54;10.85;;;8.93;;
33864;SDS011;20159;51.072;13.526;2023-06-22T04:38:21;10.10;;;9.02;;
33864;SDS011;20159;51.072;13.526;2023-06-22T04:40:47;11.15;;;9.27;;
33864;SDS011;20159;51.072;13.526;2023-06-22T04:43:13;8.90;;;8.02;;
33864;SDS011;20159;51.072;13.526;2023-06-22T04:45:38;9.48;;;8.43;;
33864;SDS011;20159;51.072;13.526;2023-06-22T04:48:04;9.02;;;7.80;;
33864;SDS011;20159;51.072;13.526;2023-06-22T04:50:30;9.32;;;8.43;;
33864;SDS011;20159;51.072;13.526;2023-06-22T04:52:56;9.93;;;8.25;;
33864;SDS011;20159;51.072;13.526;2023-06-22T04:55:21;9.80;;;8.80;;
33864;SDS011;20159;51.072;13.526;2023-06-22T04:57:47;9.48;;;8.57;;
33864;SDS011;20159;51.072;13.526;2023-06-22T05:00:20;9.55;;;8.45;;
33864;SDS011;20159;51.072;13.526;2023-06-22T05:02:48;9.70;;;8.60;;
33864;SDS011;20159;51.072;13.526;2023-06-22T05:05:14;9.43;;;8.25;;
33864;SDS011;20159;51.072;13.526;2023-06-22T05:07:44;10.25;;;8.20;;
33864;SDS011;20159;51.072;13.526;2023-06-22T05:10:15;9.00;;;8.07;;
33864;SDS011;20159;51.072;13.526;2023-06-22T05:12:42;9.43;;;8.43;;
33864;SDS011;20159;51.072;13.526;2023-06-22T05:15:07;10.88;;;8.25;;
33864;SDS011;20159;51.072;13.526;2023-06-22T05:17:34;9.27;;;8.07;;
33864;SDS011;20159;51.072;13.526;2023-06-22T05:20:01;8.02;;;7.32;;
33864;SDS011;20159;51.072;13.526;2023-06-22T05:22:27;8.68;;;7.40;;
33864;SDS011;20159;51.072;13.526;2023-06-22T05:24:53;8.07;;;7.28;;
33864;SDS011;20159;51.072;13.526;2023-06-22T05:27:18;8.60;;;7.70;;
33864;SDS011;20159;51.072;13.526;2023-06-22T05:29:44;8.52;;;7.72;;
33864;SDS011;20159;51.072;13.526;2023-06-22T05:32:09;7.80;;;7.00;;
33864;SDS011;20159;51.072;13.526;2023-06-22T05:34:35;7.63;;;6.88;;
33864;SDS011;20159;51.072;13.526;2023-06-22T05:37:00;8.38;;;7.32;;
33864;SDS011;20159;51.072;13.526;2023-06-22T05:39:26;7.47;;;6.78;;
33864;SDS011;20159;51.072;13.526;2023-06-22T05:41:52;7.43;;;6.72;;
33864;SDS011;20159;51.072;13.526;2023-06-22T05:44:18;7.05;;;6.45;;
33864;SDS011;20159;51.072;13.526;2023-06-22T05:46:44;7.28;;;6.63;;
33864;SDS011;20159;51.072;13.526;2023-06-22T05:49:14;7.80;;;6.28;;
33864;SDS011;20159;51.072;13.526;2023-06-22T05:51:41;7.18;;;6.47;;
33864;SDS011;20159;51.072;13.526;2023-06-22T05:54:06;6.82;;;6.13;;
33864;SDS011;20159;51.072;13.526;2023-06-22T05:56:33;7.10;;;6.40;;
33864;SDS011;20159;51.072;13.526;2023-06-22T05:58:59;6.90;;;6.20;;
33864;SDS011;20159;51.072;13.526;2023-06-22T06:01:24;7.82;;;6.63;;
33864;SDS011;20159;51.072;13.526;2023-06-22T06:03:50;7.35;;;6.60;;
33864;SDS011;20159;51.072;13.526;2023-06-22T06:06:17;6.93;;;6.28;;
33864;SDS011;20159;51.072;13.526;2023-06-22T06:08:46;7.10;;;6.50;;
33864;SDS011;20159;51.072;13.526;2023-06-22T06:11:11;6.95;;;6.07;;
33864;SDS011;20159;51.072;13.526;2023-06-22T06:13:37;8.10;;;6.47;;
33864;SDS011;20159;51.072;13.526;2023-06-22T06:16:02;7.25;;;6.57;;
33864;SDS011;20159;51.072;13.526;2023-06-22T06:18:28;6.75;;;6.15;;
33864;SDS011;20159;51.072;13.526;2023-06-22T06:20:53;7.20;;;6.50;;
33864;SDS011;20159;51.072;13.526;2023-06-22T06:23:19;8.05;;;6.55;;
33864;SDS011;20159;51.072;13.526;2023-06-22T06:25:44;6.88;;;6.22;;
33864;SDS011;20159;51.072;13.526;2023-06-22T06:28:10;8.00;;;6.95;;
33864;SDS011;20159;51.072;13.526;2023-06-22T06:30:35;7.70;;;6.90;;
33864;SDS011;20159;51.072;13.526;2023-06-22T06:33:02;7.70;;;6.20;;
33864;SDS011;20159;51.072;13.526;2023-06-22T06:35:29;7.25;;;6.55;;
33864;SDS011;20159;51.072;13.526;2023-06-22T06:37:55;7.70;;;6.97;;
33864;SDS011;20159;51.072;13.526;2023-06-22T06:40:20;7.82;;;6.70;;
33864;SDS011;20159;51.072;13.526;2023-06-22T06:42:47;8.43;;;7.00;;
33864;SDS011;20159;51.072;13.526;2023-06-22T06:47:43;8.23;;;7.53;;
33864;SDS011;20159;51.072;13.526;2023-06-22T06:50:09;7.82;;;7.10;;
33864;SDS011;20159;51.072;13.526;2023-06-22T06:52:36;7.10;;;6.40;;
33864;SDS011;20159;51.072;13.526;2023-06-22T06:55:02;9.50;;;6.85;;
33864;SDS011;20159;51.072;13.526;2023-06-22T06:57:29;10.02;;;7.38;;
33864;SDS011;20159;51.072;13.526;2023-06-22T06:59:55;7.40;;;6.70;;
33864;SDS011;20159;51.072;13.526;2023-06-22T07:02:21;7.88;;;7.07;;
33864;SDS011;20159;51.072;13.526;2023-06-22T07:04:48;7.57;;;6.88;;
33864;SDS011;20159;51.072;13.526;2023-06-22T07:07:13;7.75;;;6.93;;
33864;SDS011;20159;51.072;13.526;2023-06-22T07:09:39;6.80;;;6.10;;
33864;SDS011;20159;51.072;13.526;2023-06-22T07:12:05;6.78;;;6.07;;
33864;SDS011;20159;51.072;13.526;2023-06-22T07:14:31;7.03;;;6.32;;
33864;SDS011;20159;51.072;13.526;2023-06-22T07:16:56;7.03;;;6.32;;
33864;SDS011;20159;51.072;13.526;2023-06-22T07:19:25;8.07;;;6.57;;
33864;SDS011;20159;51.072;13.526;2023-06-22T07:21:52;7.35;;;6.63;;
33864;SDS011;20159;51.072;13.526;2023-06-22T07:24:18;6.82;;;6.22;;
33864;SDS011;20159;51.072;13.526;2023-06-22T07:26:48;7.32;;;6.55;;
33864;SDS011;20159;51.072;13.526;2023-06-22T07:29:15;7.28;;;6.57;;
33864;SDS011;20159;51.072;13.526;2023-06-22T07:31:41;7.47;;;6.10;;
33864;SDS011;20159;51.072;13.526;2023-06-22T07:34:07;7.00;;;6.40;;
33864;SDS011;20159;51.072;13.526;2023-06-22T07:36:32;7.50;;;6.80;;
33864;SDS011;20159;51.072;13.526;2023-06-22T07:39:00;7.05;;;6.35;;
33864;SDS011;20159;51.072;13.526;2023-06-22T07:41:26;7.50;;;6.80;;
33864;SDS011;20159;51.072;13.526;2023-06-22T07:43:51;6.57;;;5.97;;
33864;SDS011;20159;51.072;13.526;2023-06-22T07:46:17;7.15;;;6.45;;
33864;SDS011;20159;51.072;13.526;2023-06-22T07:48:42;7.30;;;6.60;;
33864;SDS011;20159;51.072;13.526;2023-06-22T07:51:08;7.40;;;6.63;;
33864;SDS011;20159;51.072;13.526;2023-06-22T07:53:36;7.07;;;6.38;;
33864;SDS011;20159;51.072;13.526;2023-06-22T07:56:01;8.45;;;6.68;;
33864;SDS011;20159;51.072;13.526;2023-06-22T07:58:31;7.07;;;6.38;;
33864;SDS011;20159;51.072;13.526;2023-06-22T08:00:57;7.32;;;6.63;;
33864;SDS011;20159;51.072;13.526;2023-06-22T08:03:23;7.03;;;6.32;;
33864;SDS011;20159;51.072;13.526;2023-06-22T08:05:48;7.20;;;6.50;;
33864;SDS011;20159;51.072;13.526;2023-06-22T08:08:14;7.40;;;6.70;;
33864;SDS011;20159;51.072;13.526;2023-06-22T08:10:40;6.95;;;6.35;;
33864;SDS011;20159;51.072;13.526;2023-06-22T08:13:07;6.93;;;6.22;;
33864;SDS011;20159;51.072;13.526;2023-06-22T08:15:32;6.65;;;6.00;;
33864;SDS011;20159;51.072;13.526;2023-06-22T08:17:58;6.75;;;6.15;;
33864;SDS011;20159;51.072;13.526;2023-06-22T08:20:25;9.70;;;6.45;;
33864;SDS011;20159;51.072;13.526;2023-06-22T08:22:51;7.07;;;6.10;;
33864;SDS011;20159;51.072;13.526;2023-06-22T08:25:19;7.15;;;6.55;;
33864;SDS011;20159;51.072;13.526;2023-06-22T08:27:45;6.72;;;6.07;;
33864;SDS011;20159;51.072;13.526;2023-06-22T08:30:13;7.00;;;6.30;;
33864;SDS011;20159;51.072;13.526;2023-06-22T08:32:39;6.95;;;5.90;;
33864;SDS011;20159;51.072;13.526;2023-06-22T08:35:05;6.90;;;6.20;;
33864;SDS011;20159;51.072;13.526;2023-06-22T08:37:34;6.25;;;5.65;;
33864;SDS011;20159;51.072;13.526;2023-06-22T08:40:01;6.10;;;5.50;;
33864;SDS011;20159;51.072;13.526;2023-06-22T08:42:32;5.65;;;5.15;;
33864;SDS011;20159;51.072;13.526;2023-06-22T08:44:57;6.00;;;5.50;;
33864;SDS011;20159;51.072;13.526;2023-06-22T08:47:23;5.57;;;5.07;;
33864;SDS011;20159;51.072;13.526;2023-06-22T08:49:49;5.90;;;5.40;;
33864;SDS011;20159;51.072;13.526;2023-06-22T08:52:14;6.10;;;5.50;;
33864;SDS011;20159;51.072;13.526;2023-06-22T08:54:40;11.48;;;5.78;;
33864;SDS011;20159;51.072;13.526;2023-06-22T08:57:06;5.60;;;5.10;;
33864;SDS011;20159;51.072;13.526;2023-06-22T08:59:31;5.10;;;4.68;;
33864;SDS011;20159;51.072;13.526;2023-06-22T09:01:57;5.28;;;4.78;;
33864;SDS011;20159;51.072;13.526;2023-06-22T09:04:22;5.80;;;5.20;;
33864;SDS011;20159;51.072;13.526;2023-06-22T09:06:48;5.32;;;4.82;;
33864;SDS011;20159;51.072;13.526;2023-06-22T09:09:15;9.98;;;4.95;;
33864;SDS011;20159;51.072;13.526;2023-06-22T09:11:41;5.35;;;4.85;;
33864;SDS011;20159;51.072;13.526;2023-06-22T09:14:07;5.90;;;5.30;;
33864;SDS011;20159;51.072;13.526;2023-06-22T09:16:33;5.32;;;4.82;;
33864;SDS011;20159;51.072;13.526;2023-06-22T09:18:59;4.80;;;4.35;;
33864;SDS011;20159;51.072;13.526;2023-06-22T09:21:25;4.78;;;4.38;;
33864;SDS011;20159;51.072;13.526;2023-06-22T09:23:50;5.35;;;4.30;;
33864;SDS011;20159;51.072;13.526;2023-06-22T09:26:19;4.82;;;4.43;;
33864;SDS011;20159;51.072;13.526;2023-06-22T09:28:45;5.32;;;4.82;;
33864;SDS011;20159;51.072;13.526;2023-06-22T09:31:11;5.10;;;4.63;;
33864;SDS011;20159;51.072;13.526;2023-06-22T09:33:37;7.05;;;4.47;;
33864;SDS011;20159;51.072;13.526;2023-06-22T09:36:05;5.47;;;4.30;;
33864;SDS011;20159;51.072;13.526;2023-06-22T09:38:37;6.05;;;4.70;;
33864;SDS011;20159;51.072;13.526;2023-06-22T09:41:03;5.07;;;4.60;;
33864;SDS011;20159;51.072;13.526;2023-06-22T09:43:31;5.40;;;4.90;;
33864;SDS011;20159;51.072;13.526;2023-06-22T09:45:57;5.93;;;4.90;;
33864;SDS011;20159;51.072;13.526;2023-06-22T09:48:23;8.00;;;4.78;;
33864;SDS011;20159;51.072;13.526;2023-06-22T09:50:48;4.82;;;4.43;;
33864;SDS011;20159;51.072;13.526;2023-06-22T09:53:13;5.35;;;4.68;;
33864;SDS011;20159;51.072;13.526;2023-06-22T09:55:39;7.00;;;4.78;;
33864;SDS011;20159;51.072;13.526;2023-06-22T09:58:04;5.70;;;5.10;;
33864;SDS011;20159;51.072;13.526;2023-06-22T10:00:30;5.07;;;4.57;;
33864;SDS011;20159;51.072;13.526;2023-06-22T10:02:55;5.35;;;4.95;;
33864;SDS011;20159;51.072;13.526;2023-06-22T10:05:21;5.30;;;4.80;;
33864;SDS011;20159;51.072;13.526;2023-06-22T10:07:47;6.25;;;5.47;;
33864;SDS011;20159;51.072;13.526;2023-06-22T10:10:13;6.05;;;5.55;;
33864;SDS011;20159;51.072;13.526;2023-06-22T10:12:47;6.15;;;5.60;;
33864;SDS011;20159;51.072;13.526;2023-06-22T10:15:19;6.28;;;5.57;;
33864;SDS011;20159;51.072;13.526;2023-06-22T10:17:46;6.57;;;5.97;;
33864;SDS011;20159;51.072;13.526;2023-06-22T10:20:12;6.18;;;5.68;;
33864;SDS011;20159;51.072;13.526;2023-06-22T10:22:41;8.15;;;7.35;;
33864;SDS011;20159;51.072;13.526;2023-06-22T10:25:09;7.25;;;5.75;;
33864;SDS011;20159;51.072;13.526;2023-06-22T10:27:35;6.97;;;5.28;;
33864;SDS011;20159;51.072;13.526;2023-06-22T10:30:01;6.07;;;5.47;;
33864;SDS011;20159;51.072;13.526;2023-06-22T10:32:27;5.60;;;5.10;;
33864;SDS011;20159;51.072;13.526;2023-06-22T10:34:53;9.15;;;7.80;;
33864;SDS011;20159;51.072;13.526;2023-06-22T10:37:19;6.47;;;5.88;;
33864;SDS011;20159;51.072;13.526;2023-06-22T10:39:44;10.05;;;5.40;;
33864;SDS011;20159;51.072;13.526;2023-06-22T10:42:10;7.13;;;4.90;;
33864;SDS011;20159;51.072;13.526;2023-06-22T10:44:36;5.75;;;5.25;;
33864;SDS011;20159;51.072;13.526;2023-06-22T10:47:02;5.57;;;5.00;;
33864;SDS011;20159;51.072;13.526;2023-06-22T10:49:27;5.78;;;5.18;;
33864;SDS011;20159;51.072;13.526;2023-06-22T10:51:53;6.38;;;4.93;;
33864;SDS011;20159;51.072;13.526;2023-06-22T10:54:18;5.38;;;4.80;;
33864;SDS011;20159;51.072;13.526;2023-06-22T10:56:44;5.97;;;4.82;;
33864;SDS011;20159;51.072;13.526;2023-06-22T10:59:10;6.70;;;6.10;;
33864;SDS011;20159;51.072;13.526;2023-06-22T11:01:35;5.47;;;4.97;;
33864;SDS011;20159;51.072;13.526;2023-06-22T11:04:01;5.90;;;5.40;;
33864;SDS011;20159;51.072;13.526;2023-06-22T11:06:27;10.85;;;6.05;;
33864;SDS011;20159;51.072;13.526;2023-06-22T11:08:52;5.88;;;5.28;;
33864;SDS011;20159;51.072;13.526;2023-06-22T11:11:18;6.05;;;5.45;;
33864;SDS011;20159;51.072;13.526;2023-06-22T11:13:43;5.53;;;5.03;;
33864;SDS011;20159;51.072;13.526;2023-06-22T11:16:09;5.47;;;4.97;;
33864;SDS011;20159;51.072;13.526;2023-06-22T11:18:35;5.50;;;5.00;;
33864;SDS011;20159;51.072;13.526;2023-06-22T11:21:00;5.78;;;5.20;;
33864;SDS011;20159;51.072;13.526;2023-06-22T11:23:26;6.18;;;5.38;;
33864;SDS011;20159;51.072;13.526;2023-06-22T11:25:52;6.65;;;5.32;;
33864;SDS011;20159;51.072;13.526;2023-06-22T11:28:18;5.72;;;5.22;;
33864;SDS011;20159;51.072;13.526;2023-06-22T11:30:44;5.82;;;5.32;;
33864;SDS011;20159;51.072;13.526;2023-06-22T11:33:09;5.10;;;4.60;;
33864;SDS011;20159;51.072;13.526;2023-06-22T11:35:35;5.53;;;5.03;;
33864;SDS011;20159;51.072;13.526;2023-06-22T11:38:00;5.63;;;5.13;;
33864;SDS011;20159;51.072;13.526;2023-06-22T11:40:26;7.97;;;5.80;;
33864;SDS011;20159;51.072;13.526;2023-06-22T11:42:51;8.18;;;5.18;;
33864;SDS011;20159;51.072;13.526;2023-06-22T11:45:17;6.50;;;5.32;;
33864;SDS011;20159;51.072;13.526;2023-06-22T11:47:43;6.82;;;5.55;;
33864;SDS011;20159;51.072;13.526;2023-06-22T11:50:09;7.13;;;5.35;;
33864;SDS011;20159;51.072;13.526;2023-06-22T11:52:35;5.70;;;5.10;;
33864;SDS011;20159;51.072;13.526;2023-06-22T11:55:01;6.72;;;5.95;;
33864;SDS011;20159;51.072;13.526;2023-06-22T11:57:28;5.70;;;5.20;;
33864;SDS011;20159;51.072;13.526;2023-06-22T11:59:54;7.20;;;5.18;;
33864;SDS011;20159;51.072;13.526;2023-06-22T12:02:19;6.10;;;5.50;;
33864;SDS011;20159;51.072;13.526;2023-06-22T12:04:45;6.03;;;5.43;;
33864;SDS011;20159;51.072;13.526;2023-06-22T12:07:11;5.63;;;5.10;;
33864;SDS011;20159;51.072;13.526;2023-06-22T12:09:36;5.50;;;5.00;;
33864;SDS011;20159;51.072;13.526;2023-06-22T12:12:02;6.43;;;5.22;;
33864;SDS011;20159;51.072;13.526;2023-06-22T12:14:28;5.68;;;5.18;;
33864;SDS011;20159;51.072;13.526;2023-06-22T12:16:53;6.40;;;5.07;;
33864;SDS011;20159;51.072;13.526;2023-06-22T12:19:19;5.75;;;5.00;;
33864;SDS011;20159;51.072;13.526;2023-06-22T12:21:44;5.22;;;4.72;;
33864;SDS011;20159;51.072;13.526;2023-06-22T12:24:10;5.63;;;5.13;;
33864;SDS011;20159;51.072;13.526;2023-06-22T12:26:36;5.30;;;4.80;;
33864;SDS011;20159;51.072;13.526;2023-06-22T12:29:01;5.75;;;5.15;;
33864;SDS011;20159;51.072;13.526;2023-06-22T12:31:27;5.63;;;5.13;;
33864;SDS011;20159;51.072;13.526;2023-06-22T12:33:53;5.75;;;5.15;;
33864;SDS011;20159;51.072;13.526;2023-06-22T12:36:18;5.53;;;4.93;;
33864;SDS011;20159;51.072;13.526;2023-06-22T12:38:43;5.35;;;4.68;;
33864;SDS011;20159;51.072;13.526;2023-06-22T12:41:09;5.10;;;4.68;;
33864;SDS011;20159;51.072;13.526;2023-06-22T12:43:34;6.10;;;4.70;;
33864;SDS011;20159;51.072;13.526;2023-06-22T12:46:00;5.55;;;4.80;;
33864;SDS011;20159;51.072;13.526;2023-06-22T12:48:26;5.38;;;4.88;;
33864;SDS011;20159;51.072;13.526;2023-06-22T12:50:52;5.70;;;4.75;;
33864;SDS011;20159;51.072;13.526;2023-06-22T12:53:18;5.07;;;4.57;;
33864;SDS011;20159;51.072;13.526;2023-06-22T12:55:43;5.55;;;4.80;;
33864;SDS011;20159;51.072;13.526;2023-06-22T12:58:09;5.43;;;4.75;;
33864;SDS011;20159;51.072;13.526;2023-06-22T13:00:34;5.82;;;4.72;;
33864;SDS011;20159;51.072;13.526;2023-06-22T13:03:00;7.63;;;5.05;;
33864;SDS011;20159;51.072;13.526;2023-06-22T13:05:25;5.70;;;4.88;;
33864;SDS011;20159;51.072;13.526;2023-06-22T13:07:51;5.05;;;4.60;;
33864;SDS011;20159;51.072;13.526;2023-06-22T13:10:17;4.93;;;4.50;;
33864;SDS011;20159;51.072;13.526;2023-06-22T13:12:42;5.00;;;4.50;;
33864;SDS011;20159;51.072;13.526;2023-06-22T13:15:08;6.28;;;4.40;;
33864;SDS011;20159;51.072;13.526;2023-06-22T13:17:33;4.95;;;4.45;;
33864;SDS011;20159;51.072;13.526;2023-06-22T13:19:59;4.78;;;4.38;;
33864;SDS011;20159;51.072;13.526;2023-06-22T13:22:28;5.18;;;4.68;;
33864;SDS011;20159;51.072;13.526;2023-06-22T13:24:55;4.97;;;4.57;;
33864;SDS011;20159;51.072;13.526;2023-06-22T13:27:21;4.95;;;4.55;;
33864;SDS011;20159;51.072;13.526;2023-06-22T13:29:47;5.72;;;5.18;;
33864;SDS011;20159;51.072;13.526;2023-06-22T13:32:12;5.88;;;4.75;;
33864;SDS011;20159;51.072;13.526;2023-06-22T13:34:38;5.30;;;4.88;;
33864;SDS011;20159;51.072;13.526;2023-06-22T13:37:04;4.70;;;4.30;;
33864;SDS011;20159;51.072;13.526;2023-06-22T13:39:29;5.32;;;4.82;;
33864;SDS011;20159;51.072;13.526;2023-06-22T13:41:55;5.25;;;4.72;;
33864;SDS011;20159;51.072;13.526;2023-06-22T13:44:21;5.13;;;4.63;;
33864;SDS011;20159;51.072;13.526;2023-06-22T13:46:47;5.07;;;4.57;;
33864;SDS011;20159;51.072;13.526;2023-06-22T13:49:12;4.80;;;4.35;;
33864;SDS011;20159;51.072;13.526;2023-06-22T13:51:38;6.35;;;4.43;;
33864;SDS011;20159;51.072;13.526;2023-06-22T13:54:03;5.10;;;4.70;;
33864;SDS011;20159;51.072;13.526;2023-06-22T13:56:29;5.07;;;4.68;;
33864;SDS011;20159;51.072;13.526;2023-06-22T13:58:54;5.15;;;4.65;;
33864;SDS011;20159;51.072;13.526;2023-06-22T14:01:20;4.78;;;4.00;;
33864;SDS011;20159;51.072;13.526;2023-06-22T14:03:46;5.10;;;4.13;;
33864;SDS011;20159;51.072;13.526;2023-06-22T14:06:13;6.32;;;4.50;;
33864;SDS011;20159;51.072;13.526;2023-06-22T14:08:38;5.63;;;4.53;;
33864;SDS011;20159;51.072;13.526;2023-06-22T14:11:04;4.82;;;4.32;;
33864;SDS011;20159;51.072;13.526;2023-06-22T14:13:29;4.80;;;4.38;;
33864;SDS011;20159;51.072;13.526;2023-06-22T14:15:55;4.93;;;4.53;;
33864;SDS011;20159;51.072;13.526;2023-06-22T14:18:20;5.10;;;4.60;;
33864;SDS011;20159;51.072;13.526;2023-06-22T14:20:47;5.20;;;4.70;;
33864;SDS011;20159;51.072;13.526;2023-06-22T14:23:13;5.10;;;4.60;;
33864;SDS011;20159;51.072;13.526;2023-06-22T14:25:39;5.85;;;4.68;;
33864;SDS011;20159;51.072;13.526;2023-06-22T14:28:05;5.63;;;5.13;;
33864;SDS011;20159;51.072;13.526;2023-06-22T14:30:31;5.43;;;4.90;;
33864;SDS011;20159;51.072;13.526;2023-06-22T14:32:56;6.75;;;5.03;;
33864;SDS011;20159;51.072;13.526;2023-06-22T14:35:22;5.70;;;5.25;;
33864;SDS011;20159;51.072;13.526;2023-06-22T14:37:49;5.55;;;5.00;;